Strona główna
METAR-TAF:

METAR-TAF

Lotnisko :

Port lotniczy Mendoza

Mendoza, Argentyna

Szerokość geograficzna: 32-50S, Długość geograficzna: 068-47W, wysokość: 705 m

Aktualna obserwacja pogody

Raport powstał 43 minut temu, godzina 17:00 UTC
Wiatr 3 kt z kierunków zmiennych
Temperatura 8°C
Wilgotność 49%
Ciśnienie 1022 hPa
Widzialność 10 km lub więcej
Rozproszone chmury na wysokości 3000 ft

METAR: SAME 251700Z VRB03KT 9999 SCT030 08/M02 Q1022

czas: 14:43 (17:43 UTC)

Prognoza

Raport powstał 6 godziny i 43 minut temu, godzina 11:00 UTC
Prognoza ważna od 25 godzina 12 UTC do 26 godzina 12 UTC
Wiatr 5 kt od południe
Widzialność 10 km lub więcej
Mało chmury na wysokości 2500 ft
Rozproszone chmury na wysokości 3000 ft
Stopniowe zmiany
od 25 godzina 16 UTC do 25 godzina 18 UTC
Wiatr 5 kt od północny wschód
Mało chmury na wysokości 4000 ft

TAF: SAME 251100Z 2512/2612 18005KT 9999 FEW025 SCT030 TX08/2520Z TNM01/2611Z BECMG 2516/2518 05005KT FEW040

Obserwacja i prognoza pogody dla ponad 4000 lotnisk (raport METAR i TAF).

Dostępne stacje oznaczono żółtymi i czerwonymi punktami na mapie.

Najedź kursorem aby zobaczyć nazwę stacji.

Kliknij aby zobaczyć obserwacje i prognozy pogody.

Aby zmienić mapę: kliknij na zielony przycisk z czarnym krzyżykiem, aby powiększyć; na zielony przycisk z myślnikiem, aby pomniejszyć; na zielone strzałki, aby przejść do map sąsiednich.


METAR-TAF: